Wheeler, Arkansas
Current Conditions -  °F | °C
As of 7:53 AM on Friday 31 Oct 2014 (Local Time) from KFYV Reporting Station
Overcast Overcast  
Wind Chill: 44°   Ceiling: 2300
Heat Index: 47°   Visibility: 10mi
Dew Point: 40°   Wind: 6mph
Humidity: 77%   Direction: NA
Pressure: 30.27"   Gusts: NA
Location:  36.0926°N, 94.221°W
Report Text: KFYV 311253Z VRB05KT 10SM OVC023 08/04 A3027 RMK AO2 SLP247 T00830044
Loading
Personal Weather Stations






























Interactive Weather Map
Tropical Storm Tracking
New forecast layout! Learn more

10-Day Weather Forecast

Advertisements
Track Severe Weather on mobile